PILOTS ONLINE: 512    ATC ONLINE: 112

KNKT

Cherry Point MCAS /Cunningham Field/

Location

City Cherry Point
Country  United States
Latitude 34° 54' 3" N
Longitude 76° 52' 50" W
Elevation 29 ft
Type Medium Airport

Map

Weather

METAR
2014/10/24 20:54
KNKT 242054Z 32008KT 10SM CLR 21/08 A2995 RMK AO2 SLP138 T02110083 56015 $ 
TAF
2014/10/24 21:59
TAF KNKT 2421/2521 32008KT 9999 SCT200 QNH2993INS 
      BECMG 2422/2500 VRB03KT 9999 SCT150 SCT200 QNH2995INS 
     FM251300 35007KT 9999 FEW200 QNH2998INS T09/2511Z T22/2521Z

Runways

05L/23R 7553 ft / 200 ft
05R/23L 8188 ft / 196 ft
14L/32R 8984 ft / 200 ft
14R/32L 8399 ft / 200 ft

Outbound flights

Callsign Flying to Pilot ATD/STD ETA Aircraft

Inbound flights

Callsign Flying from Pilot ATD ETA Aircraft